createdAt,value
2022-12-17T00:01:28.602Z,83.78
2022-12-17T00:06:51.968Z,78.68
2022-12-17T00:12:12.340Z,81.35
2022-12-17T00:17:32.791Z,85.22
2022-12-17T00:22:53.300Z,89.97
2022-12-17T00:28:13.706Z,89.43
2022-12-17T00:33:34.462Z,86.07
2022-12-17T00:39:08.809Z,86.05
2022-12-17T00:44:29.343Z,91.70
2022-12-17T00:49:49.816Z,81.28
2022-12-17T00:55:10.251Z,79.65
2022-12-17T01:00:31.160Z,78.88
2022-12-17T01:05:52.728Z,78.40
2022-12-17T01:11:22.875Z,80.65
2022-12-17T01:16:43.307Z,76.88
2022-12-17T01:22:04.662Z,71.90
2022-12-17T01:27:25.540Z,74.78
2022-12-17T01:32:45.843Z,71.00
2022-12-17T01:38:06.094Z,80.30
2022-12-17T01:43:31.707Z,69.53
2022-12-17T01:49:05.495Z,70.70
2022-12-17T01:54:25.879Z,66.07
2022-12-17T02:00:20.193Z,70.88
2022-12-17T02:05:48.055Z,68.93
2022-12-17T02:11:23.537Z,74.50
2022-12-17T02:16:51.401Z,67.80
2022-12-17T02:22:16.816Z,68.68
2022-12-17T02:27:37.802Z,69.63
2022-12-17T02:33:01.149Z,69.53
2022-12-17T02:43:56.139Z,69.57
2022-12-17T02:49:16.502Z,66.18
2022-12-17T02:54:37.792Z,67.32
2022-12-17T02:59:58.875Z,67.32
2022-12-17T03:05:43.853Z,69.18
2022-12-17T03:11:00.754Z,67.70
2022-12-17T03:16:37.217Z,68.47
2022-12-17T03:21:58.231Z,71.55
2022-12-17T03:27:19.053Z,80.20
2022-12-17T03:32:39.402Z,70.28
2022-12-17T03:37:59.804Z,73.78
2022-12-17T03:43:27.426Z,70.78
2022-12-17T03:48:47.648Z,74.53
2022-12-17T03:54:08.078Z,68.28
2022-12-17T03:59:28.657Z,71.43
2022-12-17T04:04:49.168Z,69.35
2022-12-17T04:10:09.423Z,72.13
2022-12-17T04:15:29.852Z,67.45
2022-12-17T04:20:50.168Z,68.57
2022-12-17T04:26:10.516Z,69.93
2022-12-17T04:31:30.738Z,66.10
2022-12-17T04:36:51.144Z,63.72
2022-12-17T04:42:11.567Z,64.68
2022-12-17T04:47:31.814Z,61.78
2022-12-17T04:52:52.063Z,63.97
2022-12-17T04:58:12.711Z,63.42
2022-12-17T05:03:35.866Z,59.47
2022-12-17T05:08:56.648Z,66.47
2022-12-17T05:14:16.964Z,63.08
2022-12-17T05:19:37.278Z,65.00
2022-12-17T05:24:57.789Z,64.65
2022-12-17T05:30:18.190Z,63.20
2022-12-17T05:35:38.412Z,62.70
2022-12-17T05:40:58.706Z,63.03
2022-12-17T05:46:19.173Z,61.25
2022-12-17T05:51:40.585Z,64.18
2022-12-17T05:57:00.850Z,61.55
2022-12-17T06:02:21.230Z,63.30
2022-12-17T06:07:41.877Z,67.25
2022-12-17T06:13:02.280Z,77.20
2022-12-17T06:18:22.699Z,73.13
2022-12-17T06:23:43.064Z,76.22
2022-12-17T06:29:03.732Z,69.60
2022-12-17T06:34:24.064Z,74.72
2022-12-17T06:39:44.440Z,67.57
2022-12-17T06:45:04.699Z,66.78
2022-12-17T06:50:25.569Z,66.85
2022-12-17T06:55:46.396Z,68.88
2022-12-17T07:01:07.078Z,65.40
2022-12-17T07:06:27.437Z,72.68
2022-12-17T07:11:48.062Z,66.40
2022-12-17T07:17:08.510Z,68.60
2022-12-17T07:22:29.160Z,62.53
2022-12-17T07:27:49.636Z,62.85
2022-12-17T07:33:18.155Z,66.40
2022-12-17T07:38:38.645Z,70.25
2022-12-17T07:43:59.502Z,63.97
2022-12-17T07:49:25.379Z,71.20
2022-12-17T07:54:46.178Z,69.65
2022-12-17T08:00:06.508Z,70.50
2022-12-17T08:05:27.379Z,63.83
2022-12-17T08:10:52.167Z,66.47
2022-12-17T08:16:13.173Z,64.70
2022-12-17T08:21:33.782Z,61.70
2022-12-17T08:26:53.931Z,63.70
2022-12-17T08:32:14.252Z,66.13
2022-12-17T08:37:34.819Z,63.10
2022-12-17T08:42:55.599Z,58.03
2022-12-17T08:48:23.934Z,59.13
2022-12-17T08:53:44.399Z,62.53
2022-12-17T08:59:04.583Z,65.95
2022-12-17T09:04:24.852Z,68.22
2022-12-17T09:09:45.119Z,62.15
2022-12-17T09:15:05.292Z,65.65
2022-12-17T09:20:29.496Z,59.38
2022-12-17T09:25:53.766Z,65.90
2022-12-17T09:31:19.513Z,63.13
2022-12-17T09:36:39.942Z,68.00
2022-12-17T09:42:06.540Z,64.80
2022-12-17T09:47:47.603Z,70.47
2022-12-17T09:53:08.639Z,61.40
2022-12-17T09:58:48.708Z,61.75
2022-12-17T10:04:08.983Z,62.00
2022-12-17T10:09:35.565Z,66.90
2022-12-17T10:14:55.816Z,67.53
2022-12-17T10:20:17.654Z,68.25
2022-12-17T10:25:41.104Z,66.60
2022-12-17T10:31:02.227Z,68.18
2022-12-17T10:36:24.587Z,67.20
2022-12-17T10:41:53.177Z,71.65
2022-12-17T10:47:18.328Z,74.60
2022-12-17T10:52:51.014Z,70.78
2022-12-17T10:58:11.373Z,64.90
2022-12-17T11:03:48.809Z,71.10
2022-12-17T11:09:09.622Z,67.47
2022-12-17T11:14:32.063Z,68.63
2022-12-17T11:20:12.781Z,80.00
2022-12-17T11:25:49.296Z,72.93
2022-12-17T11:31:20.850Z,68.93
2022-12-17T11:36:52.271Z,64.95
2022-12-17T11:42:30.144Z,69.95
2022-12-17T11:48:08.603Z,75.15
2022-12-17T11:53:41.151Z,76.63
2022-12-17T11:59:15.097Z,84.22
2022-12-17T12:10:34.288Z,86.57
2022-12-17T12:16:15.819Z,94.53
2022-12-17T12:22:17.931Z,94.03
2022-12-17T12:28:07.803Z,89.30
2022-12-17T12:33:39.984Z,93.15
2022-12-17T12:39:02.398Z,83.32
2022-12-17T12:44:34.988Z,80.35
2022-12-17T12:50:21.979Z,83.32
2022-12-17T12:55:42.329Z,78.97
2022-12-17T13:01:05.798Z,83.57
2022-12-17T13:06:08.035Z,85.00
2022-12-17T13:11:36.182Z,78.20
2022-12-17T13:16:52.365Z,83.40
2022-12-17T13:21:54.464Z,78.60
2022-12-17T13:26:56.484Z,77.00
2022-12-17T13:32:01.165Z,77.82
2022-12-17T13:37:17.842Z,78.63
2022-12-17T13:42:30.443Z,77.85
2022-12-17T13:47:35.250Z,76.43
2022-12-17T13:52:37.137Z,74.43
2022-12-17T13:57:45.490Z,76.10
2022-12-17T14:02:48.903Z,81.20
2022-12-17T14:13:05.430Z,81.15
2022-12-17T14:18:14.692Z,76.55
2022-12-17T14:23:27.212Z,77.15
2022-12-17T14:28:35.374Z,77.97
2022-12-17T14:33:37.915Z,81.30
2022-12-17T14:38:42.034Z,77.35
2022-12-17T14:43:45.786Z,80.63
2022-12-17T14:49:04.814Z,85.63
2022-12-17T14:54:06.631Z,75.75
2022-12-17T14:59:35.971Z,71.03
2022-12-17T15:04:39.303Z,84.32
2022-12-17T15:09:42.101Z,85.28
2022-12-17T15:14:43.975Z,80.23
2022-12-17T15:19:50.195Z,83.28
2022-12-17T15:24:56.156Z,87.45
2022-12-17T15:29:58.006Z,87.68
2022-12-17T15:34:59.958Z,88.47
2022-12-17T15:40:02.424Z,84.82
2022-12-17T15:45:05.012Z,89.03
2022-12-17T15:50:07.592Z,90.63
2022-12-17T15:55:14.371Z,84.40
2022-12-17T16:00:18.602Z,84.00
2022-12-17T16:05:22.019Z,80.85
2022-12-17T16:10:23.912Z,78.15
2022-12-17T16:15:25.893Z,81.93
2022-12-17T16:20:29.941Z,83.45
2022-12-17T16:25:31.898Z,78.45
2022-12-17T16:30:36.900Z,82.90
2022-12-17T16:35:39.100Z,94.30
2022-12-17T16:40:43.228Z,107.13
2022-12-17T16:45:50.540Z,106.25
2022-12-17T16:50:52.391Z,113.20
2022-12-17T16:55:54.302Z,105.00
2022-12-17T17:00:56.267Z,109.72
2022-12-17T17:06:03.713Z,107.00
2022-12-17T17:11:25.079Z,102.70
2022-12-17T17:16:27.284Z,99.65
2022-12-17T17:21:30.139Z,100.90
2022-12-17T17:26:33.533Z,101.93
2022-12-17T17:36:57.275Z,92.47
2022-12-17T17:41:59.304Z,86.18
2022-12-17T17:47:01.529Z,83.53
2022-12-17T17:52:11.611Z,85.85
2022-12-17T17:57:14.057Z,81.30
2022-12-17T18:02:16.071Z,82.68
2022-12-17T18:07:26.607Z,82.47
2022-12-17T18:12:47.407Z,83.10
2022-12-17T18:17:51.603Z,75.18
2022-12-17T18:22:53.739Z,73.80
2022-12-17T18:27:57.511Z,76.88
2022-12-17T18:32:59.351Z,71.03
2022-12-17T18:38:01.617Z,76.25
2022-12-17T18:43:22.359Z,70.50
2022-12-17T18:48:24.175Z,71.88
2022-12-17T18:53:26.127Z,70.20
2022-12-17T18:58:27.979Z,66.15
2022-12-17T19:03:29.867Z,61.67
2022-12-17T19:08:35.323Z,60.50
2022-12-17T19:13:37.628Z,61.25
2022-12-17T19:18:40.397Z,62.45
2022-12-17T19:23:42.692Z,60.58
2022-12-17T19:28:47.789Z,60.05
2022-12-17T19:33:49.787Z,61.25
2022-12-17T19:38:56.496Z,56.05
2022-12-17T19:44:00.955Z,58.22
2022-12-17T19:49:04.378Z,64.18
2022-12-17T19:59:11.877Z,64.72
2022-12-17T20:04:15.856Z,73.78
2022-12-17T20:09:17.793Z,70.78
2022-12-17T20:14:29.452Z,76.15
2022-12-17T20:19:33.135Z,85.28
2022-12-17T20:24:37.158Z,80.43
2022-12-17T20:29:39.223Z,86.38
2022-12-17T20:34:41.124Z,87.97
2022-12-17T20:39:43.557Z,83.63
2022-12-17T20:44:51.581Z,82.03
2022-12-17T20:49:55.187Z,79.60
2022-12-17T20:54:57.126Z,81.78
2022-12-17T20:59:59.037Z,80.85
2022-12-17T21:05:01.016Z,86.00
2022-12-17T21:10:03.023Z,80.78
2022-12-17T21:15:05.105Z,78.80
2022-12-17T21:20:10.556Z,77.78
2022-12-17T21:25:14.196Z,80.00
2022-12-17T21:30:16.137Z,74.65
2022-12-17T21:35:18.064Z,71.43
2022-12-17T21:40:20.243Z,73.82
2022-12-17T21:45:22.577Z,70.40
2022-12-17T21:50:24.649Z,69.07
2022-12-17T21:55:27.231Z,67.03
2022-12-17T22:00:29.197Z,68.53
2022-12-17T22:05:31.412Z,65.70
2022-12-17T22:10:43.472Z,68.63
2022-12-17T22:15:54.763Z,69.00
2022-12-17T22:21:00.920Z,65.88
2022-12-17T22:26:02.742Z,63.40
2022-12-17T22:31:32.782Z,64.20
2022-12-17T22:38:17.887Z,57.08
2022-12-17T22:44:49.373Z,57.72
2022-12-17T22:47:38.182Z,56.53
2022-12-17T22:52:40.097Z,53.10
2022-12-17T22:57:42.424Z,56.38
2022-12-17T23:02:44.407Z,59.13
2022-12-17T23:07:46.411Z,59.65
2022-12-17T23:12:51.682Z,56.35
2022-12-17T23:17:56.019Z,58.97
2022-12-17T23:22:58.911Z,64.55
2022-12-17T23:28:00.805Z,43.83
2022-12-17T23:33:04.196Z,55.38
2022-12-17T23:38:06.080Z,54.45
2022-12-17T23:43:10.632Z,55.92
2022-12-17T23:48:14.965Z,52.03
2022-12-17T23:53:16.833Z,52.20
2022-12-17T23:58:19.048Z,55.78
